Time;durP1;ratioP1;P1;durP2;ratioP2;P2;SDS_P1;SDS_P2;PMS_P1;PMS_P2;Temp;Humidity;BMP_temperature;BMP_pressure;BME280_temperature;BME280_humidity;BME280_pressure;Samples;Min_cycle;Max_cycle;Signal;HPM_P1;HPM_P2
2023/05/07 00:01:46;;;;;;;8.52;5.53;;;17.40;79.00;;;;;;5070634;28;20039;-64
2023/05/07 00:04:13;;;;;;;9.38;5.93;;;17.40;79.00;;;;;;5068064;28;20024;-64
2023/05/07 00:06:39;;;;;;;8.63;5.93;;;17.40;79.10;;;;;;5066771;28;20477;-64
2023/05/07 00:09:05;;;;;;;9.20;5.90;;;17.40;79.10;;;;;;5071017;28;20374;-64
2023/05/07 00:11:32;;;;;;;8.52;6.05;;;17.40;79.10;;;;;;5074412;28;20028;-64
2023/05/07 00:13:57;;;;;;;10.20;5.95;;;17.40;79.10;;;;;;5068351;28;20032;-64
2023/05/07 00:16:23;;;;;;;8.70;6.00;;;17.40;79.10;;;;;;5064867;28;20035;-64
2023/05/07 00:18:49;;;;;;;9.65;6.10;;;17.30;79.10;;;;;;5064183;28;20031;-64
2023/05/07 00:21:15;;;;;;;9.57;6.43;;;17.30;79.20;;;;;;5074938;28;20303;-64
2023/05/07 00:23:40;;;;;;;8.98;5.97;;;17.30;79.20;;;;;;5061147;28;20056;-64
2023/05/07 00:26:06;;;;;;;11.18;6.78;;;17.30;79.20;;;;;;5064871;28;20125;-64
2023/05/07 00:28:32;;;;;;;9.27;6.32;;;17.30;79.30;;;;;;5065338;28;20040;-64
2023/05/07 00:30:58;;;;;;;9.52;6.55;;;17.30;79.30;;;;;;5074441;28;20108;-64
2023/05/07 00:33:23;;;;;;;8.98;5.93;;;17.30;79.30;;;;;;5061876;28;20078;-64
2023/05/07 00:35:49;;;;;;;10.95;6.57;;;17.30;79.40;;;;;;5073527;28;20021;-64
2023/05/07 00:38:15;;;;;;;8.82;6.10;;;17.20;79.30;;;;;;5071701;28;20082;-64
2023/05/07 00:40:41;;;;;;;11.32;6.78;;;17.20;79.40;;;;;;5074911;28;20445;-64
2023/05/07 00:43:07;;;;;;;10.55;6.70;;;17.20;79.40;;;;;;5069510;28;20047;-64
2023/05/07 00:45:35;;;;;;;11.18;6.38;;;17.20;80.10;;;;;;5072560;28;20441;-64
2023/05/07 00:48:02;;;;;;;9.27;6.13;;;17.20;79.50;;;;;;5072992;28;20104;-64
2023/05/07 00:50:29;;;;;;;10.80;6.82;;;17.20;79.50;;;;;;5074165;28;20032;-65
2023/05/07 00:52:55;;;;;;;10.35;6.70;;;17.20;79.40;;;;;;5058958;28;20330;-64
2023/05/07 00:55:23;;;;;;;10.13;6.47;;;17.20;79.40;;;;;;5067322;28;20093;-64
2023/05/07 00:57:50;;;;;;;10.02;6.55;;;17.10;79.30;;;;;;5072598;28;20522;-64
2023/05/07 01:00:16;;;;;;;9.93;6.78;;;17.10;79.30;;;;;;5068005;28;20017;-64
2023/05/07 01:02:42;;;;;;;9.23;6.32;;;17.10;79.20;;;;;;5066634;28;20025;-64
2023/05/07 01:05:10;;;;;;;11.43;7.07;;;17.10;79.20;;;;;;5069018;28;20037;-64
2023/05/07 01:07:36;;;;;;;10.52;7.03;;;17.10;79.10;;;;;;5062219;28;20069;-64
2023/05/07 01:10:04;;;;;;;9.48;7.05;;;17.10;79.20;;;;;;5061573;28;20111;-64
2023/05/07 01:12:30;;;;;;;10.02;7.38;;;17.10;79.20;;;;;;5063779;28;20347;-64
2023/05/07 01:14:57;;;;;;;10.98;7.60;;;17.00;79.20;;;;;;5068072;28;20032;-64
2023/05/07 01:17:23;;;;;;;9.75;7.45;;;17.00;79.20;;;;;;5052791;28;20051;-64
2023/05/07 01:19:52;;;;;;;12.30;7.70;;;17.00;79.20;;;;;;5065758;28;20102;-64
2023/05/07 01:22:33;;;;;;;10.95;7.63;;;17.00;79.20;;;;;;5073088;28;20043;-64
2023/05/07 01:25:01;;;;;;;9.93;7.22;;;17.00;79.20;;;;;;5062923;28;20044;-64
2023/05/07 01:27:28;;;;;;;9.88;7.35;;;17.00;79.20;;;;;;5061474;28;20033;-64
2023/05/07 01:29:55;;;;;;;11.75;7.28;;;16.90;79.20;;;;;;5071383;28;20025;-64
2023/05/07 01:32:32;;;;;;;11.63;7.22;;;16.90;79.20;;;;;;5072939;28;20360;-64
2023/05/07 01:34:59;;;;;;;9.95;6.90;;;16.90;79.20;;;;;;5062605;28;20040;-64
2023/05/07 01:37:26;;;;;;;10.50;7.25;;;16.90;79.30;;;;;;5060300;28;20069;-64
2023/05/07 01:39:53;;;;;;;11.98;7.32;;;16.90;80.00;;;;;;5064453;28;20381;-64
2023/05/07 01:42:19;;;;;;;9.35;7.07;;;16.90;79.40;;;;;;5066092;28;20025;-64
2023/05/07 01:44:46;;;;;;;10.40;7.68;;;16.90;79.50;;;;;;5057233;28;20645;-64
2023/05/07 01:47:13;;;;;;;11.95;7.93;;;16.90;79.50;;;;;;5057561;28;20116;-64
2023/05/07 01:49:39;;;;;;;12.20;7.82;;;16.80;79.50;;;;;;5061380;28;20041;-64
2023/05/07 01:52:06;;;;;;;10.48;7.90;;;16.90;79.60;;;;;;5063533;28;20361;-64
2023/05/07 01:54:31;;;;;;;10.27;7.57;;;16.90;79.60;;;;;;5071288;28;20024;-64
2023/05/07 01:56:58;;;;;;;10.88;8.07;;;16.90;79.50;;;;;;5062925;28;20052;-64
2023/05/07 01:59:24;;;;;;;12.30;8.10;;;16.90;79.60;;;;;;5068183;28;20602;-64
2023/05/07 02:01:50;;;;;;;12.45;7.95;;;16.90;79.60;;;;;;5071528;28;20094;-64
2023/05/07 02:04:16;;;;;;;10.90;8.18;;;16.80;79.60;;;;;;5072531;28;20125;-64
2023/05/07 02:06:42;;;;;;;12.43;8.18;;;16.80;79.70;;;;;;5054486;28;20337;-64
2023/05/07 02:09:10;;;;;;;11.60;8.02;;;16.80;79.60;;;;;;5067580;28;20020;-64
2023/05/07 02:11:37;;;;;;;12.50;8.57;;;16.80;79.60;;;;;;5067545;28;20048;-64
2023/05/07 02:14:02;;;;;;;11.25;8.38;;;16.80;79.60;;;;;;5075824;28;20036;-64
2023/05/07 02:16:28;;;;;;;11.75;8.65;;;16.80;79.70;;;;;;5070066;28;20433;-63
2023/05/07 02:18:54;;;;;;;11.05;8.35;;;16.90;79.70;;;;;;5072179;28;20418;-64
2023/05/07 02:21:20;;;;;;;10.30;8.73;;;16.90;79.80;;;;;;5068227;28;20023;-64
2023/05/07 02:23:46;;;;;;;12.02;8.57;;;16.90;79.80;;;;;;5076124;28;20021;-64
2023/05/07 02:26:12;;;;;;;12.15;9.07;;;16.90;79.70;;;;;;5071706;28;20027;-64
2023/05/07 02:28:38;;;;;;;12.63;9.20;;;16.80;79.70;;;;;;5058574;28;20308;-64
2023/05/07 02:31:05;;;;;;;11.15;8.68;;;16.80;79.70;;;;;;5070155;28;20033;-64
2023/05/07 02:33:31;;;;;;;11.35;8.48;;;16.80;79.70;;;;;;5072770;28;20021;-64
2023/05/07 02:36:09;;;;;;;12.30;9.02;;;16.80;79.70;;;;;;5065755;28;20028;-64
2023/05/07 02:38:37;;;;;;;12.73;8.75;;;16.80;79.70;;;;;;5076080;28;20028;-64
2023/05/07 02:41:03;;;;;;;10.77;8.50;;;16.80;79.60;;;;;;5058566;28;20063;-64
2023/05/07 02:43:29;;;;;;;13.00;8.70;;;16.80;79.60;;;;;;5044188;28;20462;-64
2023/05/07 02:46:06;;;;;;;11.13;8.75;;;16.80;79.60;;;;;;5068647;28;20016;-64
2023/05/07 02:48:34;;;;;;;13.50;8.93;;;16.80;79.50;;;;;;5070259;28;20021;-64
2023/05/07 02:51:00;;;;;;;13.13;8.90;;;16.80;79.60;;;;;;5062080;28;20369;-64
2023/05/07 02:53:27;;;;;;;14.48;9.57;;;16.80;79.60;;;;;;5075545;28;20024;-64
2023/05/07 02:55:53;;;;;;;14.07;9.60;;;16.80;79.60;;;;;;5070518;28;20063;-64
2023/05/07 02:58:19;;;;;;;11.40;8.48;;;16.80;79.70;;;;;;5062910;28;20063;-64
2023/05/07 03:00:46;;;;;;;11.80;8.75;;;16.80;79.80;;;;;;5068926;28;20118;-64
2023/05/07 03:03:41;;;;;;;12.02;8.25;;;16.80;79.70;;;;;;5051385;28;20037;-64
2023/05/07 03:06:07;;;;;;;11.13;8.65;;;16.80;79.70;;;;;;5071456;28;20059;-64
2023/05/07 03:08:33;;;;;;;10.68;8.43;;;16.80;79.60;;;;;;5066695;28;20031;-64
2023/05/07 03:10:59;;;;;;;10.88;8.27;;;16.70;79.60;;;;;;5063691;28;20119;-64
2023/05/07 03:13:25;;;;;;;12.88;8.68;;;16.80;79.70;;;;;;5072581;28;20112;-64
2023/05/07 03:15:51;;;;;;;11.40;8.77;;;16.80;79.70;;;;;;5065742;28;20058;-64
2023/05/07 03:18:17;;;;;;;11.35;8.52;;;16.80;79.50;;;;;;5070600;28;20063;-64
2023/05/07 03:20:43;;;;;;;12.85;9.13;;;16.70;79.40;;;;;;5072877;28;20112;-64
2023/05/07 03:23:09;;;;;;;11.98;8.77;;;16.80;79.40;;;;;;5064759;28;20093;-64
2023/05/07 03:25:35;;;;;;;13.18;9.30;;;16.80;79.40;;;;;;5058722;28;20111;-64
2023/05/07 03:28:01;;;;;;;13.20;9.75;;;16.70;79.20;;;;;;5071682;28;20120;-64
2023/05/07 03:30:35;;;;;;;14.52;9.43;;;16.70;79.20;;;;;;5065800;28;20074;-64
2023/05/07 03:33:01;;;;;;;12.57;9.60;;;16.70;79.20;;;;;;5056243;28;20082;-64
2023/05/07 03:35:27;;;;;;;12.38;9.45;;;16.70;79.10;;;;;;5056797;28;20025;-64
2023/05/07 03:37:53;;;;;;;13.50;10.13;;;16.70;79.10;;;;;;5073585;28;20032;-64
2023/05/07 03:40:20;;;;;;;13.60;10.05;;;16.70;79.10;;;;;;5056659;28;20445;-64
2023/05/07 03:42:50;;;;;;;12.05;9.13;;;16.70;79.10;;;;;;5065095;28;20606;-65
2023/05/07 03:45:18;;;;;;;11.57;9.05;;;16.70;79.10;;;;;;5068069;28;20032;-66
2023/05/07 03:47:50;;;;;;;12.00;9.43;;;16.70;79.10;;;;;;5069334;28;20024;-66
2023/05/07 03:50:19;;;;;;;12.18;9.02;;;16.70;79.10;;;;;;5072588;28;20032;-64
2023/05/07 03:52:45;;;;;;;13.23;8.88;;;16.70;79.00;;;;;;5050830;28;20025;-64
2023/05/07 03:55:12;;;;;;;12.63;8.80;;;16.70;79.00;;;;;;5071698;28;20029;-64
2023/05/07 03:57:43;;;;;;;11.75;9.57;;;16.70;79.00;;;;;;5061094;28;20139;-64
2023/05/07 04:00:10;;;;;;;12.38;8.82;;;16.70;79.00;;;;;;5068773;28;20401;-64
2023/05/07 04:02:46;;;;;;;13.43;9.63;;;16.70;79.00;;;;;;5067907;28;20501;-64
2023/05/07 04:05:15;;;;;;;12.52;9.82;;;16.60;79.00;;;;;;5071561;28;20102;-64
2023/05/07 04:07:42;;;;;;;12.90;10.27;;;16.60;79.00;;;;;;5049495;28;20054;-64
2023/05/07 04:10:09;;;;;;;13.18;10.02;;;16.60;79.00;;;;;;5071481;28;20028;-64
2023/05/07 04:12:38;;;;;;;13.38;9.95;;;16.60;79.00;;;;;;5065889;28;20092;-64
2023/05/07 04:15:06;;;;;;;13.45;10.70;;;16.60;79.10;;;;;;5071202;28;20357;-64
2023/05/07 04:17:32;;;;;;;15.65;10.65;;;16.60;79.10;;;;;;5070917;28;20073;-64
2023/05/07 04:19:59;;;;;;;13.00;11.13;;;16.60;79.10;;;;;;5065618;28;20373;-64
2023/05/07 04:22:26;;;;;;;14.60;11.00;;;16.60;79.20;;;;;;5068448;28;20020;-64
2023/05/07 04:24:53;;;;;;;14.45;11.65;;;16.60;79.20;;;;;;5053688;28;20021;-64
2023/05/07 04:27:18;;;;;;;12.65;10.98;;;16.60;79.20;;;;;;5066153;28;20067;-64
2023/05/07 04:29:47;;;;;;;15.52;11.82;;;16.60;79.20;;;;;;5064947;28;20045;-64
2023/05/07 04:32:15;;;;;;;14.05;11.82;;;16.60;79.30;;;;;;5071366;28;20032;-65
2023/05/07 04:34:41;;;;;;;14.98;11.35;;;16.60;79.30;;;;;;5067962;28;20111;-64
2023/05/07 04:37:07;;;;;;;14.15;10.77;;;16.60;79.40;;;;;;5067176;28;20028;-64
2023/05/07 04:39:35;;;;;;;13.73;11.60;;;16.60;79.50;;;;;;5069677;28;20029;-64
2023/05/07 04:42:03;;;;;;;13.55;11.32;;;16.60;79.50;;;;;;5079458;28;20083;-64
2023/05/07 04:44:30;;;;;;;13.77;11.60;;;16.60;79.60;;;;;;5067237;28;20472;-64
2023/05/07 04:46:57;;;;;;;12.65;11.15;;;16.60;79.60;;;;;;5069652;28;20111;-63
2023/05/07 04:49:23;;;;;;;14.38;11.80;;;16.60;79.60;;;;;;5054218;28;20044;-64
2023/05/07 04:51:52;;;;;;;13.10;11.65;;;16.60;79.60;;;;;;5060805;28;20028;-64
2023/05/07 04:54:20;;;;;;;14.27;12.40;;;16.60;79.70;;;;;;5068651;28;20539;-63
2023/05/07 04:56:46;;;;;;;13.43;11.20;;;16.60;79.70;;;;;;5053939;28;20039;-64
2023/05/07 04:59:12;;;;;;;12.60;10.98;;;16.60;79.70;;;;;;5069115;28;20103;-63
2023/05/07 05:01:38;;;;;;;13.85;11.45;;;16.70;79.70;;;;;;5054062;28;20012;-64
2023/05/07 05:04:04;;;;;;;14.38;11.45;;;16.70;79.70;;;;;;5065718;28;20032;-63
2023/05/07 05:06:30;;;;;;;13.63;12.18;;;16.70;79.70;;;;;;5068216;28;20046;-63
2023/05/07 05:08:56;;;;;;;16.58;12.52;;;16.70;79.80;;;;;;5059335;28;20116;-63
2023/05/07 05:11:22;;;;;;;15.73;12.50;;;16.70;79.80;;;;;;5068342;28;20105;-65
2023/05/07 05:13:49;;;;;;;15.98;14.27;;;16.70;79.90;;;;;;5069189;28;20097;-65
2023/05/07 05:16:18;;;;;;;14.25;11.55;;;16.70;80.60;;;;;;5066686;28;20021;-65
2023/05/07 05:18:44;;;;;;;13.95;12.13;;;16.70;80.00;;;;;;5063270;28;20357;-65
2023/05/07 05:21:12;;;;;;;14.43;12.45;;;16.70;80.00;;;;;;5070734;28;20039;-65
2023/05/07 05:23:39;;;;;;;13.95;10.93;;;16.70;80.00;;;;;;5069682;28;20406;-65
2023/05/07 05:26:05;;;;;;;14.38;11.80;;;16.70;80.00;;;;;;5071822;28;20032;-65
2023/05/07 05:28:33;;;;;;;13.35;11.85;;;16.70;80.00;;;;;;5069337;28;20016;-65
2023/05/07 05:30:59;;;;;;;14.68;11.60;;;16.70;80.00;;;;;;5042332;28;20116;-65
2023/05/07 05:33:27;;;;;;;14.40;11.48;;;16.70;80.00;;;;;;5066755;28;20497;-65
2023/05/07 05:35:56;;;;;;;13.18;11.60;;;16.70;80.70;;;;;;5064630;28;20358;-65
2023/05/07 05:38:22;;;;;;;15.32;13.07;;;16.80;80.00;;;;;;5062520;28;20031;-65
2023/05/07 05:40:47;;;;;;;13.25;11.27;;;16.80;80.00;;;;;;5062878;28;20107;-65
2023/05/07 05:43:14;;;;;;;14.45;11.77;;;16.80;80.00;;;;;;5067541;28;20390;-65
2023/05/07 05:45:40;;;;;;;14.45;11.00;;;16.80;80.00;;;;;;5068994;28;20085;-65
2023/05/07 05:48:06;;;;;;;13.60;11.38;;;16.80;80.00;;;;;;5071590;28;20025;-64
2023/05/07 05:50:32;;;;;;;13.57;11.63;;;16.80;79.80;;;;;;5074961;28;20099;-64
2023/05/07 05:52:58;;;;;;;14.73;12.07;;;16.90;79.90;;;;;;5076465;28;20024;-64
2023/05/07 05:55:26;;;;;;;13.80;11.40;;;16.80;79.90;;;;;;5074065;28;20025;-64
2023/05/07 05:57:52;;;;;;;14.30;11.75;;;16.80;80.60;;;;;;5081707;28;20020;-64
2023/05/07 06:00:22;;;;;;;13.35;11.07;;;16.80;80.60;;;;;;5075171;28;20127;-64
2023/05/07 06:02:54;;;;;;;13.75;11.23;;;16.80;79.90;;;;;;5061979;28;20099;-64
2023/05/07 06:05:23;;;;;;;14.65;11.55;;;16.80;79.90;;;;;;5083494;28;20552;-66
2023/05/07 06:07:52;;;;;;;124.60;20.17;;;16.90;80.00;;;;;;5065570;28;20078;-65
2023/05/07 06:10:18;;;;;;;21.88;12.05;;;16.90;79.90;;;;;;5061332;28;20029;-66
2023/05/07 06:12:44;;;;;;;18.00;11.23;;;16.90;79.90;;;;;;5062004;28;20035;-66
2023/05/07 06:15:10;;;;;;;13.65;11.13;;;17.00;79.90;;;;;;5062833;28;20029;-66
2023/05/07 06:17:36;;;;;;;13.50;11.05;;;17.00;79.80;;;;;;5071062;28;20039;-66
2023/05/07 06:20:03;;;;;;;14.25;11.85;;;17.00;79.80;;;;;;5067217;28;20016;-66
2023/05/07 06:22:28;;;;;;;15.18;11.38;;;17.00;79.80;;;;;;5069897;28;20020;-65
2023/05/07 06:24:55;;;;;;;13.00;10.90;;;17.00;79.80;;;;;;5075177;28;20020;-65
2023/05/07 06:27:21;;;;;;;14.63;10.75;;;17.10;79.80;;;;;;5072584;28;20025;-65
2023/05/07 06:29:48;;;;;;;15.15;11.55;;;17.10;79.70;;;;;;5072503;28;20037;-65
2023/05/07 06:32:17;;;;;;;13.05;10.38;;;17.10;79.70;;;;;;5068580;28;20094;-67
2023/05/07 06:34:44;;;;;;;13.38;11.40;;;17.10;79.70;;;;;;5068585;28;20199;-67
2023/05/07 06:37:10;;;;;;;14.30;12.13;;;17.10;79.70;;;;;;5057588;28;20163;-66
2023/05/07 06:39:56;;;;;;;14.55;11.98;;;17.20;79.70;;;;;;5069113;28;20066;-67
2023/05/07 06:42:22;;;;;;;15.77;12.82;;;17.20;79.60;;;;;;5072014;28;20025;-67
2023/05/07 06:44:49;;;;;;;16.02;13.15;;;17.20;79.40;;;;;;5050475;28;20025;-67
2023/05/07 06:47:16;;;;;;;16.73;12.88;;;17.30;79.40;;;;;;5076244;28;20043;-67
2023/05/07 06:49:45;;;;;;;15.00;12.10;;;17.20;79.40;;;;;;5058448;28;20074;-67
2023/05/07 06:52:14;;;;;;;15.30;12.98;;;17.30;79.40;;;;;;5075701;28;20323;-67
2023/05/07 06:54:40;;;;;;;16.00;13.13;;;17.30;79.30;;;;;;5075582;28;20035;-67
2023/05/07 06:57:07;;;;;;;15.45;12.85;;;17.30;79.30;;;;;;5076789;28;20048;-67
2023/05/07 06:59:32;;;;;;;14.80;12.57;;;17.30;79.20;;;;;;5075166;28;20059;-67
2023/05/07 07:01:59;;;;;;;16.48;14.05;;;17.40;79.20;;;;;;5085164;28;20030;-67
2023/05/07 07:04:25;;;;;;;16.25;13.52;;;17.40;79.20;;;;;;5075334;28;20025;-67
2023/05/07 07:06:58;;;;;;;16.23;12.85;;;17.40;79.20;;;;;;5075754;28;20135;-67
2023/05/07 07:09:24;;;;;;;17.30;14.23;;;17.40;79.10;;;;;;5076672;28;20103;-67
2023/05/07 07:11:54;;;;;;;16.88;14.32;;;17.50;79.00;;;;;;5055758;28;20028;-67
2023/05/07 07:14:20;;;;;;;14.23;12.52;;;17.50;78.90;;;;;;5074585;28;20039;-67
2023/05/07 07:16:49;;;;;;;18.27;14.15;;;17.60;78.80;;;;;;5075628;28;20107;-67
2023/05/07 07:19:17;;;;;;;16.88;13.02;;;17.60;78.60;;;;;;5075206;28;20028;-67
2023/05/07 07:21:46;;;;;;;17.52;13.25;;;17.70;78.60;;;;;;5067385;28;20028;-67
2023/05/07 07:24:18;;;;;;;17.13;14.23;;;17.70;79.10;;;;;;5068743;28;20032;-67
2023/05/07 07:26:45;;;;;;;16.33;13.18;;;17.70;78.40;;;;;;5075834;28;20029;-67
2023/05/07 07:29:12;;;;;;;17.48;14.32;;;17.70;78.30;;;;;;5075307;28;20115;-67
2023/05/07 07:31:39;;;;;;;16.92;14.30;;;17.70;78.30;;;;;;5090483;28;20574;-67
2023/05/07 07:34:05;;;;;;;17.90;15.00;;;17.70;78.20;;;;;;5075104;28;20461;-67
2023/05/07 07:36:31;;;;;;;17.88;14.48;;;17.70;78.20;;;;;;5058572;28;20067;-67
2023/05/07 07:38:57;;;;;;;17.13;13.82;;;17.80;78.10;;;;;;5075053;28;20066;-65
2023/05/07 07:41:22;;;;;;;16.63;14.07;;;17.80;78.00;;;;;;5065212;28;20059;-66
2023/05/07 07:43:49;;;;;;;16.13;14.10;;;17.80;77.90;;;;;;5067219;28;20351;-66
2023/05/07 07:46:15;;;;;;;16.38;14.05;;;17.80;77.90;;;;;;5065443;28;20025;-65
2023/05/07 07:48:43;;;;;;;16.52;13.80;;;17.90;77.90;;;;;;5067162;28;20086;-65
2023/05/07 07:51:09;;;;;;;16.05;13.45;;;17.90;77.70;;;;;;5074787;28;20028;-65
2023/05/07 07:53:34;;;;;;;19.30;14.18;;;17.90;77.50;;;;;;5062367;28;20040;-65
2023/05/07 07:56:01;;;;;;;18.30;15.18;;;17.90;77.40;;;;;;5066209;28;20021;-65
2023/05/07 07:58:30;;;;;;;17.92;14.50;;;17.90;77.30;;;;;;5054484;28;20031;-65
2023/05/07 08:00:57;;;;;;;16.58;13.95;;;17.90;77.30;;;;;;5072151;28;20033;-64
2023/05/07 08:03:24;;;;;;;19.45;14.63;;;17.90;77.30;;;;;;5070046;28;20055;-63
2023/05/07 08:05:54;;;;;;;16.55;13.70;;;18.00;77.30;;;;;;5062191;28;20049;-64
2023/05/07 08:08:20;;;;;;;18.35;14.35;;;18.00;77.30;;;;;;5057017;28;20359;-64
2023/05/07 08:10:49;;;;;;;18.02;15.15;;;18.00;77.20;;;;;;5070101;28;20099;-64
2023/05/07 08:13:20;;;;;;;18.00;14.18;;;18.10;77.30;;;;;;5071586;28;20031;-64
2023/05/07 08:15:46;;;;;;;17.88;13.75;;;18.10;77.20;;;;;;5058067;28;20029;-65
2023/05/07 08:18:13;;;;;;;19.88;14.50;;;18.20;77.20;;;;;;5059340;28;20434;-65
2023/05/07 08:20:39;;;;;;;22.48;15.07;;;18.20;77.10;;;;;;5055254;28;20074;-64
2023/05/07 08:23:08;;;;;;;16.92;13.23;;;18.20;77.00;;;;;;5071897;28;20029;-65
2023/05/07 08:25:34;;;;;;;19.20;14.63;;;18.30;76.90;;;;;;5054991;28;20025;-64
2023/05/07 08:28:01;;;;;;;17.00;13.52;;;18.30;76.90;;;;;;5067625;28;20161;-65
2023/05/07 08:30:27;;;;;;;17.83;14.43;;;18.30;77.10;;;;;;5069761;28;20074;-64
2023/05/07 08:32:53;;;;;;;17.58;14.60;;;18.30;77.20;;;;;;5072657;28;20031;-63
2023/05/07 08:35:19;;;;;;;18.25;14.38;;;18.30;77.20;;;;;;5067749;28;20108;-64
2023/05/07 08:37:45;;;;;;;17.42;14.27;;;18.20;77.20;;;;;;5069507;28;20028;-64
2023/05/07 08:40:11;;;;;;;18.23;15.07;;;18.30;77.30;;;;;;5068531;28;20066;-64
2023/05/07 08:42:39;;;;;;;17.88;14.15;;;18.30;77.10;;;;;;5062386;28;20066;-64
2023/05/07 08:45:10;;;;;;;15.98;13.90;;;18.40;77.00;;;;;;5064562;28;20028;-65
2023/05/07 08:47:45;;;;;;;17.67;14.02;;;18.40;76.80;;;;;;5060055;28;20043;-64
2023/05/07 08:50:11;;;;;;;17.60;14.38;;;18.50;76.80;;;;;;5060140;28;20031;-65
2023/05/07 08:52:38;;;;;;;16.08;14.13;;;18.50;76.60;;;;;;5059211;28;20028;-64
2023/05/07 08:55:05;;;;;;;16.50;13.73;;;18.60;76.50;;;;;;5049010;28;20028;-65
2023/05/07 08:57:31;;;;;;;16.55;12.88;;;18.60;76.40;;;;;;5071630;28;20032;-64
2023/05/07 08:59:57;;;;;;;17.42;14.00;;;18.60;76.40;;;;;;5066808;28;20339;-64
2023/05/07 09:02:23;;;;;;;17.15;13.80;;;18.70;76.40;;;;;;5081791;28;20415;-64
2023/05/07 09:04:49;;;;;;;16.98;13.35;;;18.70;76.30;;;;;;5069504;28;20032;-65
2023/05/07 09:07:16;;;;;;;16.92;13.35;;;18.70;76.30;;;;;;5081471;28;20133;-64
2023/05/07 09:09:44;;;;;;;16.90;14.13;;;18.80;76.30;;;;;;5071293;28;20024;-65
2023/05/07 09:12:11;;;;;;;18.42;13.48;;;18.80;76.10;;;;;;5072679;28;20020;-64
2023/05/07 09:14:38;;;;;;;17.95;14.65;;;18.90;76.00;;;;;;5073087;28;20025;-64
2023/05/07 09:17:04;;;;;;;18.23;14.35;;;19.00;76.00;;;;;;5068700;28;20025;-65
2023/05/07 09:19:30;;;;;;;18.75;15.07;;;19.10;76.00;;;;;;5062020;28;20557;-65
2023/05/07 09:22:01;;;;;;;16.70;12.82;;;19.20;75.60;;;;;;5074158;28;20025;-65
2023/05/07 09:24:34;;;;;;;15.25;12.90;;;19.40;75.30;;;;;;5050044;28;20035;-65
2023/05/07 09:27:02;;;;;;;16.98;12.50;;;19.60;74.90;;;;;;5065483;28;20024;-65
2023/05/07 09:29:29;;;;;;;15.10;12.43;;;19.80;74.60;;;;;;5069339;28;20031;-65
2023/05/07 09:31:56;;;;;;;16.00;12.60;;;19.80;74.40;;;;;;5071116;28;20039;-65
2023/05/07 09:34:22;;;;;;;15.40;12.23;;;20.00;74.30;;;;;;5063916;28;20408;-65
2023/05/07 09:36:48;;;;;;;17.17;11.85;;;20.10;74.10;;;;;;5067525;28;20086;-65
2023/05/07 09:39:14;;;;;;;15.07;11.65;;;20.20;73.70;;;;;;5057899;28;20024;-65
2023/05/07 09:41:49;;;;;;;17.10;12.50;;;20.20;73.50;;;;;;5061397;28;20025;-65
2023/05/07 09:44:28;;;;;;;17.52;12.77;;;20.30;73.20;;;;;;5056326;28;20077;-66
2023/05/07 09:46:55;;;;;;;14.57;11.63;;;20.40;73.10;;;;;;5070801;28;20048;-65
2023/05/07 09:49:30;;;;;;;14.68;11.00;;;20.40;73.00;;;;;;5061104;28;20074;-65
2023/05/07 09:52:06;;;;;;;14.77;10.38;;;20.40;72.60;;;;;;5068350;28;20055;-65
2023/05/07 09:54:37;;;;;;;12.18;9.77;;;20.50;72.40;;;;;;5078193;28;20086;-65
2023/05/07 09:57:05;;;;;;;14.95;11.48;;;20.60;72.20;;;;;;5070463;28;20021;-65
2023/05/07 09:59:33;;;;;;;14.38;10.35;;;20.70;71.90;;;;;;5061998;28;20032;-65
2023/05/07 10:02:04;;;;;;;15.13;10.90;;;20.80;71.70;;;;;;5068359;28;20059;-65
2023/05/07 10:04:31;;;;;;;14.18;10.43;;;20.70;71.50;;;;;;5071436;28;20093;-66
2023/05/07 10:06:58;;;;;;;14.65;10.30;;;20.80;71.40;;;;;;5071454;28;20044;-66
2023/05/07 10:09:26;;;;;;;15.13;11.32;;;20.90;71.20;;;;;;5069549;28;20028;-64
2023/05/07 10:11:53;;;;;;;12.95;10.27;;;20.90;70.90;;;;;;5066585;28;20051;-64
2023/05/07 10:14:21;;;;;;;13.98;10.70;;;21.00;70.60;;;;;;5074311;28;20040;-64
2023/05/07 10:16:48;;;;;;;14.52;11.02;;;21.10;70.30;;;;;;5058181;28;20020;-64
2023/05/07 10:19:17;;;;;;;15.25;12.07;;;21.30;70.20;;;;;;5082560;28;20052;-64
2023/05/07 10:21:56;;;;;;;13.88;10.45;;;21.40;69.80;;;;;;5066539;28;20028;-64
2023/05/07 10:24:42;;;;;;;14.63;10.93;;;21.50;69.20;;;;;;5066826;28;20159;-64
2023/05/07 10:27:15;;;;;;;12.77;9.95;;;21.60;69.20;;;;;;5058905;28;20168;-65
2023/05/07 10:30:01;;;;;;;13.95;10.05;;;21.70;69.10;;;;;;5062248;28;20028;-65
2023/05/07 10:32:40;;;;;;;13.65;9.88;;;21.80;68.60;;;;;;5072507;28;20028;-65
2023/05/07 10:35:17;;;;;;;12.18;9.18;;;22.10;68.40;;;;;;5058175;28;20450;-64
2023/05/07 10:37:45;;;;;;;15.27;9.95;;;22.40;67.60;;;;;;5076149;28;20024;-65
2023/05/07 10:40:12;;;;;;;11.65;9.02;;;22.60;67.00;;;;;;5055876;28;20028;-65
2023/05/07 10:42:38;;;;;;;11.50;9.05;;;22.80;66.40;;;;;;5075059;28;20414;-65
2023/05/07 10:45:15;;;;;;;13.48;10.00;;;23.00;65.90;;;;;;5074027;28;20052;-65
2023/05/07 10:48:10;;;;;;;10.93;8.93;;;23.20;65.40;;;;;;5063358;28;20021;-65
2023/05/07 10:50:38;;;;;;;11.57;8.13;;;23.30;65.10;;;;;;5088465;28;20634;-65
2023/05/07 10:53:17;;;;;;;13.02;8.60;;;23.40;65.10;;;;;;5070362;28;20027;-65
2023/05/07 10:55:48;;;;;;;12.48;8.57;;;23.50;64.60;;;;;;5066664;28;20025;-65
2023/05/07 10:58:22;;;;;;;10.30;8.38;;;23.50;64.80;;;;;;5067928;28;20081;-65
2023/05/07 11:00:51;;;;;;;11.55;8.60;;;23.60;63.90;;;;;;5065831;28;20024;-65
2023/05/07 11:03:25;;;;;;;11.70;8.18;;;23.70;63.80;;;;;;5066357;28;20017;-64
2023/05/07 11:06:15;;;;;;;10.23;7.68;;;23.70;63.30;;;;;;5073087;28;20040;-65
2023/05/07 11:08:57;;;;;;;11.15;8.15;;;23.80;62.70;;;;;;5072405;28;20342;-65
2023/05/07 11:11:55;;;;;;;12.15;8.95;;;23.70;62.80;;;;;;5065420;28;20037;-65
2023/05/07 11:14:43;;;;;;;10.73;7.30;;;23.50;62.80;;;;;;5065692;28;20385;-65
2023/05/07 11:17:13;;;;;;;13.63;8.70;;;23.30;63.20;;;;;;5071996;28;20119;-65
2023/05/07 11:19:53;;;;;;;10.98;8.20;;;23.20;63.40;;;;;;5057831;28;20376;-65
2023/05/07 11:22:56;;;;;;;13.95;8.93;;;23.20;63.10;;;;;;5057379;28;20028;-65
2023/05/07 11:25:23;;;;;;;11.88;8.80;;;23.10;63.30;;;;;;5063794;28;20201;-65
2023/05/07 11:28:10;;;;;;;11.25;8.38;;;22.90;63.20;;;;;;5073038;28;20029;-65
2023/05/07 11:30:39;;;;;;;12.50;9.13;;;22.90;63.20;;;;;;5062042;28;20043;-65
2023/05/07 11:33:09;;;;;;;11.75;9.40;;;22.90;63.10;;;;;;5068973;28;20025;-65
2023/05/07 11:35:34;;;;;;;12.77;10.05;;;22.80;63.10;;;;;;5056650;28;20315;-65
2023/05/07 11:38:01;;;;;;;12.48;9.20;;;22.80;63.10;;;;;;5062748;28;20025;-65
2023/05/07 11:40:30;;;;;;;11.05;8.68;;;22.80;63.10;;;;;;5062224;28;20016;-65
2023/05/07 11:42:56;;;;;;;13.20;9.45;;;22.80;63.20;;;;;;5066161;28;20507;-65
2023/05/07 11:45:25;;;;;;;12.30;9.85;;;22.80;63.30;;;;;;5076040;28;20087;-65
2023/05/07 11:47:51;;;;;;;13.02;10.02;;;22.80;63.10;;;;;;5074704;28;20020;-64
2023/05/07 11:50:16;;;;;;;10.82;8.18;;;22.70;63.10;;;;;;5073989;28;20422;-65
2023/05/07 11:52:51;;;;;;;11.68;8.75;;;22.70;63.10;;;;;;5066837;28;20028;-66
2023/05/07 11:55:19;;;;;;;11.32;8.10;;;22.70;63.10;;;;;;5069880;28;20445;-65
2023/05/07 11:57:45;;;;;;;11.65;8.10;;;22.70;63.90;;;;;;5068574;28;20016;-65
2023/05/07 12:00:11;;;;;;;11.02;8.60;;;22.70;63.20;;;;;;5069954;28;20050;-65
2023/05/07 12:02:40;;;;;;;12.10;8.85;;;22.70;62.90;;;;;;5073605;28;20029;-66
2023/05/07 12:05:06;;;;;;;10.23;7.72;;;22.70;62.90;;;;;;5075391;28;20123;-66
2023/05/07 12:07:34;;;;;;;11.85;7.63;;;22.70;62.90;;;;;;5075480;28;20477;-65
2023/05/07 12:10:04;;;;;;;12.60;7.53;;;22.60;62.80;;;;;;5075805;28;20017;-64
2023/05/07 12:12:29;;;;;;;9.43;6.75;;;22.60;62.80;;;;;;5070079;28;20029;-65
2023/05/07 12:14:55;;;;;;;9.13;6.82;;;22.60;62.70;;;;;;5055960;28;20464;-65
2023/05/07 12:17:21;;;;;;;12.45;8.80;;;22.60;62.70;;;;;;5064897;28;20111;-65
2023/05/07 12:19:47;;;;;;;11.00;8.90;;;22.60;62.70;;;;;;5061425;28;20017;-63
2023/05/07 12:22:13;;;;;;;10.90;7.50;;;22.50;62.50;;;;;;5059915;28;20418;-64
2023/05/07 12:24:48;;;;;;;10.95;8.05;;;22.40;63.20;;;;;;5058719;28;20469;-65
2023/05/07 12:27:14;;;;;;;10.05;7.25;;;22.40;62.60;;;;;;5069031;28;20102;-65
2023/05/07 12:29:45;;;;;;;10.77;6.88;;;22.40;62.80;;;;;;5070589;28;20796;-65
2023/05/07 12:32:19;;;;;;;10.32;7.65;;;22.30;62.70;;;;;;5068036;28;20032;-65
2023/05/07 12:34:46;;;;;;;10.70;7.53;;;22.30;62.70;;;;;;5069088;28;20036;-63
2023/05/07 12:37:15;;;;;;;10.88;7.65;;;22.30;62.70;;;;;;5071087;28;20028;-63
2023/05/07 12:39:47;;;;;;;12.13;7.30;;;22.30;62.90;;;;;;5068317;28;20033;-63